createdAt,value
2018-05-12T00:00:18.653Z,0.00
2018-05-12T00:01:18.486Z,0.00
2018-05-12T00:03:11.783Z,0.00
2018-05-12T00:04:11.698Z,0.00
2018-05-12T00:06:04.995Z,0.00
2018-05-12T00:07:04.915Z,0.00
2018-05-12T00:08:58.191Z,0.00
2018-05-12T00:09:58.132Z,0.00
2018-05-12T00:11:51.421Z,0.00
2018-05-12T00:12:51.338Z,0.00
2018-05-12T00:14:44.614Z,0.00
2018-05-12T00:15:44.550Z,0.00
2018-05-12T00:17:37.950Z,0.00
2018-05-12T00:18:37.753Z,0.00
2018-05-12T00:20:31.119Z,0.00
2018-05-12T00:21:30.964Z,0.00
2018-05-12T00:23:24.338Z,0.00
2018-05-12T00:24:24.258Z,0.00
2018-05-12T00:26:17.552Z,0.00
2018-05-12T00:27:17.469Z,0.00
2018-05-12T00:29:10.742Z,0.00
2018-05-12T00:30:10.679Z,0.00
2018-05-12T00:32:03.968Z,0.00
2018-05-12T00:33:03.890Z,0.00
2018-05-12T00:34:57.165Z,0.00
2018-05-12T00:35:57.106Z,0.00
2018-05-12T00:37:50.397Z,0.00
2018-05-12T00:38:50.314Z,0.00
2018-05-12T00:40:43.695Z,0.00
2018-05-12T00:41:43.526Z,0.00
2018-05-12T00:43:36.820Z,0.00
2018-05-12T00:44:36.737Z,0.00
2018-05-12T00:46:30.032Z,0.00
2018-05-12T00:47:29.949Z,0.00
2018-05-12T00:49:23.329Z,0.00
2018-05-12T00:50:23.160Z,0.00
2018-05-12T00:52:17.065Z,0.00
2018-05-12T00:53:16.373Z,0.00
2018-05-12T00:55:09.647Z,0.00
2018-05-12T00:56:09.583Z,0.00
2018-05-12T00:58:02.868Z,0.00
2018-05-12T00:59:02.785Z,0.00
2018-05-12T01:00:56.167Z,0.00
2018-05-12T01:01:55.998Z,0.00
2018-05-12T01:03:49.291Z,0.00
2018-05-12T01:04:49.213Z,0.00
2018-05-12T01:06:42.504Z,0.00
2018-05-12T01:07:42.421Z,0.00
2018-05-12T01:09:35.700Z,0.00
2018-05-12T01:10:35.635Z,0.00
2018-05-12T01:12:28.930Z,0.00
2018-05-12T01:13:28.906Z,0.00
2018-05-12T01:15:22.121Z,0.00
2018-05-12T01:16:22.060Z,0.00
2018-05-12T01:18:15.344Z,0.00
2018-05-12T01:19:15.260Z,0.00
2018-05-12T01:21:08.537Z,0.00
2018-05-12T01:22:08.474Z,0.00
2018-05-12T01:24:01.768Z,0.00
2018-05-12T01:25:01.694Z,0.00
2018-05-12T01:26:54.980Z,0.00
2018-05-12T01:27:54.896Z,0.00
2018-05-12T01:29:48.172Z,0.00
2018-05-12T01:30:48.110Z,0.00
2018-05-12T01:32:41.410Z,0.00
2018-05-12T01:33:41.322Z,0.00
2018-05-12T01:35:34.600Z,0.00
2018-05-12T01:36:34.535Z,0.00
2018-05-12T01:38:27.826Z,0.00
2018-05-12T01:39:27.747Z,0.00
2018-05-12T01:41:21.026Z,0.00
2018-05-12T01:42:20.958Z,0.00
2018-05-12T01:44:14.337Z,0.00
2018-05-12T01:45:14.257Z,0.00
2018-05-12T01:47:07.655Z,0.00
2018-05-12T01:48:07.459Z,0.00
2018-05-12T01:50:00.735Z,0.00
2018-05-12T01:51:00.671Z,0.00
2018-05-12T01:52:53.965Z,0.00
2018-05-12T01:53:53.884Z,0.00
2018-05-12T01:55:47.264Z,0.00
2018-05-12T01:56:47.096Z,0.00
2018-05-12T01:58:40.495Z,0.00
2018-05-12T01:59:40.308Z,0.00
2018-05-12T02:01:33.585Z,0.00
2018-05-12T02:02:33.523Z,0.00
2018-05-12T02:04:26.921Z,0.00
2018-05-12T02:05:26.733Z,0.00
2018-05-12T02:07:20.020Z,0.00
2018-05-12T02:08:19.937Z,0.00
2018-05-12T02:10:13.218Z,0.00
2018-05-12T02:11:13.151Z,0.00
2018-05-12T02:13:06.552Z,0.00
2018-05-12T02:14:06.362Z,0.00
2018-05-12T02:15:59.639Z,0.00
2018-05-12T02:16:59.576Z,0.00
2018-05-12T02:18:52.870Z,0.00
2018-05-12T02:19:52.791Z,0.00
2018-05-12T02:21:46.066Z,0.00
2018-05-12T02:22:46.004Z,0.00
2018-05-12T02:24:39.299Z,0.00
2018-05-12T02:25:39.217Z,0.00
2018-05-12T02:27:32.616Z,0.00
2018-05-12T02:28:32.423Z,0.00
2018-05-12T02:30:26.315Z,0.00
2018-05-12T02:31:25.638Z,0.00
2018-05-12T02:33:19.040Z,0.00
2018-05-12T02:34:18.859Z,0.00
2018-05-12T02:36:12.130Z,0.00
2018-05-12T02:37:12.066Z,0.00
2018-05-12T02:39:05.363Z,0.00
2018-05-12T02:40:05.280Z,0.00
2018-05-12T02:41:58.557Z,0.00
2018-05-12T02:42:58.494Z,0.00
2018-05-12T02:44:51.791Z,0.00
2018-05-12T02:45:51.709Z,0.00
2018-05-12T02:47:45.011Z,0.00
2018-05-12T02:48:44.927Z,0.00
2018-05-12T02:50:38.309Z,0.00
2018-05-12T02:51:38.145Z,0.00
2018-05-12T02:53:31.539Z,0.00
2018-05-12T02:54:31.354Z,0.00
2018-05-12T02:56:24.631Z,0.00
2018-05-12T02:57:24.568Z,0.00
2018-05-12T02:59:17.966Z,0.00
2018-05-12T03:00:17.783Z,0.00
2018-05-12T03:02:11.059Z,0.00
2018-05-12T03:03:10.997Z,0.00
2018-05-12T03:05:04.341Z,0.00
2018-05-12T03:06:04.259Z,0.00
2018-05-12T03:07:57.555Z,0.00
2018-05-12T03:08:57.472Z,0.00
2018-05-12T03:10:50.855Z,0.00
2018-05-12T03:11:50.684Z,0.00
2018-05-12T03:13:43.980Z,0.00
2018-05-12T03:14:43.898Z,0.00
2018-05-12T03:16:37.174Z,0.00
2018-05-12T03:17:37.112Z,0.00
2018-05-12T03:19:30.405Z,0.00
2018-05-12T03:20:30.323Z,0.00
2018-05-12T03:22:23.602Z,0.00
2018-05-12T03:23:23.542Z,0.00
2018-05-12T03:25:16.832Z,0.00
2018-05-12T03:26:16.751Z,0.00
2018-05-12T03:28:10.048Z,0.00
2018-05-12T03:29:09.963Z,0.00
2018-05-12T03:31:03.344Z,0.00
2018-05-12T03:32:03.191Z,0.00
2018-05-12T03:33:56.470Z,0.00
2018-05-12T03:34:56.388Z,0.00
2018-05-12T03:36:49.663Z,0.00
2018-05-12T03:37:49.600Z,0.00
2018-05-12T03:39:42.893Z,5.63
2018-05-12T03:40:42.813Z,5.63
2018-05-12T03:42:36.192Z,5.63
2018-05-12T03:43:36.023Z,5.63
2018-05-12T03:45:29.422Z,5.63
2018-05-12T03:46:29.233Z,5.63
2018-05-12T03:48:22.533Z,5.63
2018-05-12T03:49:22.446Z,5.63
2018-05-12T03:51:15.723Z,11.25
2018-05-12T03:52:15.658Z,11.25
2018-05-12T03:54:08.950Z,11.25
2018-05-12T03:55:08.870Z,11.25
2018-05-12T03:57:02.147Z,11.25
2018-05-12T03:58:02.085Z,16.88
2018-05-12T03:59:55.457Z,16.88
2018-05-12T04:00:55.294Z,16.88
2018-05-12T04:02:49.178Z,16.88
2018-05-12T04:03:48.505Z,16.88
2018-05-12T04:05:41.800Z,22.50
2018-05-12T04:06:41.724Z,22.50
2018-05-12T04:08:35.076Z,22.50
2018-05-12T04:09:34.926Z,22.50
2018-05-12T04:11:28.199Z,28.13
2018-05-12T04:12:28.136Z,28.13
2018-05-12T04:14:21.532Z,28.13
2018-05-12T04:15:21.346Z,33.75
2018-05-12T04:17:14.615Z,33.75
2018-05-12T04:18:14.549Z,33.75
2018-05-12T04:20:07.863Z,33.75
2018-05-12T04:21:07.800Z,39.38
2018-05-12T04:23:01.051Z,39.38
2018-05-12T04:24:00.989Z,39.38
2018-05-12T04:25:54.335Z,45.00
2018-05-12T04:26:54.256Z,45.00
2018-05-12T04:28:47.548Z,45.00
2018-05-12T04:29:47.467Z,45.00
2018-05-12T04:31:40.847Z,50.63
2018-05-12T04:32:40.676Z,50.63
2018-05-12T04:34:34.076Z,50.63
2018-05-12T04:35:33.889Z,56.25
2018-05-12T04:37:27.154Z,56.25
2018-05-12T04:38:27.092Z,56.25
2018-05-12T04:40:20.387Z,61.88
2018-05-12T04:41:20.311Z,61.88
2018-05-12T04:43:13.772Z,61.88
2018-05-12T04:44:13.512Z,61.88
2018-05-12T04:46:06.809Z,67.50
2018-05-12T04:47:06.728Z,67.50
2018-05-12T04:49:00.022Z,67.50
2018-05-12T04:49:59.939Z,73.13
2018-05-12T04:51:53.216Z,73.13
2018-05-12T04:52:53.149Z,73.13
2018-05-12T04:54:46.549Z,78.75
2018-05-12T04:55:46.389Z,78.75
2018-05-12T04:57:39.628Z,84.38
2018-05-12T04:58:39.562Z,84.38
2018-05-12T05:00:32.856Z,90.00
2018-05-12T05:01:32.773Z,90.00
2018-05-12T05:03:26.047Z,90.00
2018-05-12T05:04:25.987Z,95.63
2018-05-12T05:06:19.277Z,95.63
2018-05-12T05:07:19.197Z,95.63
2018-05-12T05:09:12.492Z,101.25
2018-05-12T05:10:12.408Z,101.25
2018-05-12T05:12:05.680Z,101.25
2018-05-12T05:13:05.617Z,101.25
2018-05-12T05:14:58.915Z,101.25
2018-05-12T05:15:58.828Z,106.88
2018-05-12T05:17:52.207Z,106.88
2018-05-12T05:18:52.040Z,106.88
2018-05-12T05:20:45.439Z,106.88
2018-05-12T05:21:45.253Z,112.50
2018-05-12T05:23:38.630Z,112.50
2018-05-12T05:24:38.459Z,112.50
2018-05-12T05:26:31.755Z,118.13
2018-05-12T05:27:31.702Z,118.13
2018-05-12T05:29:24.966Z,118.13
2018-05-12T05:30:24.882Z,118.13
2018-05-12T05:32:18.261Z,123.75
2018-05-12T05:33:18.093Z,123.75
2018-05-12T05:35:11.408Z,123.75
2018-05-12T05:36:11.304Z,123.75
2018-05-12T05:38:05.184Z,129.38
2018-05-12T05:39:04.505Z,129.38
2018-05-12T05:40:57.803Z,129.38
2018-05-12T05:41:57.718Z,129.38
2018-05-12T05:43:50.991Z,129.38
2018-05-12T05:44:50.928Z,129.38
2018-05-12T05:46:44.222Z,129.38
2018-05-12T05:47:44.140Z,129.38
2018-05-12T05:49:37.433Z,135.00
2018-05-12T05:50:37.361Z,135.00
2018-05-12T05:52:30.627Z,129.38
2018-05-12T05:53:30.566Z,129.38
2018-05-12T05:55:23.859Z,129.38
2018-05-12T05:56:23.778Z,129.38
2018-05-12T05:58:17.065Z,129.38
2018-05-12T05:59:16.991Z,129.38
2018-05-12T06:01:10.341Z,129.38
2018-05-12T06:02:10.256Z,129.38
2018-05-12T06:04:03.535Z,129.38
2018-05-12T06:05:03.469Z,129.38
2018-05-12T06:06:56.875Z,129.38
2018-05-12T06:07:56.695Z,129.38
2018-05-12T06:09:49.975Z,135.00
2018-05-12T06:10:49.894Z,140.63
2018-05-12T06:12:43.276Z,140.63
2018-05-12T06:13:43.108Z,140.63
2018-05-12T06:15:36.403Z,135.00
2018-05-12T06:16:36.319Z,140.63
2018-05-12T06:18:29.597Z,146.25
2018-05-12T06:19:29.533Z,146.25
2018-05-12T06:21:22.832Z,151.88
2018-05-12T06:22:22.749Z,151.88
2018-05-12T06:24:16.026Z,151.88
2018-05-12T06:25:15.960Z,157.50
2018-05-12T06:27:09.248Z,163.13
2018-05-12T06:28:09.169Z,163.13
2018-05-12T06:30:02.444Z,174.38
2018-05-12T06:31:02.383Z,168.75
2018-05-12T06:32:55.680Z,174.38
2018-05-12T06:33:55.603Z,174.38
2018-05-12T06:35:48.895Z,180.00
2018-05-12T06:36:48.814Z,180.00
2018-05-12T06:38:42.091Z,180.00
2018-05-12T06:39:42.031Z,180.00
2018-05-12T06:41:35.332Z,185.63
2018-05-12T06:42:35.251Z,196.88
2018-05-12T06:44:28.528Z,258.75
2018-05-12T06:45:28.468Z,365.63
2018-05-12T06:47:21.759Z,388.13
2018-05-12T06:48:21.678Z,371.25
2018-05-12T06:50:15.562Z,382.50
2018-05-12T06:51:14.898Z,360.00
2018-05-12T06:53:08.203Z,303.75
2018-05-12T06:54:08.126Z,236.25
2018-05-12T06:56:01.428Z,309.38
2018-05-12T06:57:01.349Z,236.25
2018-05-12T06:58:54.634Z,348.75
2018-05-12T06:59:54.576Z,360.00
2018-05-12T07:01:47.884Z,343.13
2018-05-12T07:02:47.805Z,348.75
2018-05-12T07:04:41.190Z,365.63
2018-05-12T07:05:41.034Z,365.63
2018-05-12T07:07:34.407Z,348.75
2018-05-12T07:08:34.273Z,343.13
2018-05-12T07:10:27.577Z,343.13
2018-05-12T07:11:27.501Z,343.13
2018-05-12T07:13:20.891Z,331.88
2018-05-12T07:14:20.733Z,354.38
2018-05-12T07:16:14.057Z,343.13
2018-05-12T07:17:13.983Z,309.38
2018-05-12T07:19:07.271Z,292.50
2018-05-12T07:20:07.293Z,286.88
2018-05-12T07:22:00.625Z,270.00
2018-05-12T07:23:00.450Z,275.63
2018-05-12T07:24:53.839Z,270.00
2018-05-12T07:25:53.684Z,270.00
2018-05-12T07:27:46.983Z,275.63
2018-05-12T07:28:46.908Z,270.00
2018-05-12T07:30:40.220Z,264.38
2018-05-12T07:31:40.144Z,258.75
2018-05-12T07:33:33.434Z,253.13
2018-05-12T07:34:33.379Z,253.13
2018-05-12T07:36:26.789Z,247.50
2018-05-12T07:37:26.616Z,253.13
2018-05-12T07:39:19.909Z,247.50
2018-05-12T07:40:19.850Z,253.13
2018-05-12T07:42:13.162Z,270.00
2018-05-12T07:43:13.089Z,264.38
2018-05-12T07:45:06.380Z,258.75
2018-05-12T07:46:06.326Z,258.75
2018-05-12T07:47:59.631Z,264.38
2018-05-12T07:48:59.553Z,275.63
2018-05-12T07:50:52.870Z,281.25
2018-05-12T07:51:52.886Z,275.63
2018-05-12T07:53:46.091Z,275.63
2018-05-12T07:54:46.036Z,270.00
2018-05-12T07:56:39.448Z,275.63
2018-05-12T07:57:39.275Z,270.00
2018-05-12T07:59:32.571Z,270.00
2018-05-12T08:00:32.519Z,264.38
2018-05-12T08:02:26.829Z,247.50
2018-05-12T08:03:26.797Z,258.75
2018-05-12T08:05:20.058Z,264.38
2018-05-12T08:06:19.997Z,253.13
2018-05-12T08:08:13.310Z,253.13
2018-05-12T08:09:13.238Z,247.50
2018-05-12T08:11:06.649Z,247.50
2018-05-12T08:12:06.470Z,247.50
2018-05-12T08:13:59.863Z,241.88
2018-05-12T08:14:59.711Z,241.88
2018-05-12T08:16:53.038Z,241.88
2018-05-12T08:17:52.964Z,241.88
2018-05-12T08:19:46.348Z,236.25
2018-05-12T08:20:46.298Z,236.25
2018-05-12T08:22:39.577Z,236.25
2018-05-12T08:23:39.505Z,241.88
2018-05-12T08:25:32.788Z,236.25
2018-05-12T08:26:32.738Z,230.63
2018-05-12T08:28:26.053Z,236.25
2018-05-12T08:29:25.966Z,230.63
2018-05-12T08:31:19.273Z,230.63
2018-05-12T08:32:19.204Z,230.63
2018-05-12T08:34:12.487Z,230.63
2018-05-12T08:35:12.432Z,236.25
2018-05-12T08:37:05.755Z,230.63
2018-05-12T08:38:05.665Z,236.25
2018-05-12T08:40:00.559Z,230.63
2018-05-12T08:40:59.898Z,236.25
2018-05-12T08:42:53.201Z,236.25
2018-05-12T08:43:53.128Z,236.25
2018-05-12T08:45:46.521Z,236.25
2018-05-12T08:46:46.360Z,236.25
2018-05-12T08:48:39.664Z,236.25
2018-05-12T08:49:39.591Z,230.63
2018-05-12T08:51:33.008Z,236.25
2018-05-12T08:52:32.823Z,236.25
2018-05-12T08:54:26.106Z,236.25
2018-05-12T08:55:26.134Z,230.63
2018-05-12T08:57:19.359Z,230.63
2018-05-12T08:58:19.285Z,225.00
2018-05-12T09:00:13.574Z,230.63
2018-05-12T09:01:13.537Z,230.63
2018-05-12T09:03:06.825Z,236.25
2018-05-12T09:04:06.750Z,241.88
2018-05-12T09:06:00.036Z,241.88
2018-05-12T09:06:59.981Z,247.50
2018-05-12T09:08:53.378Z,253.13
2018-05-12T09:09:53.215Z,247.50
2018-05-12T09:11:46.536Z,247.50
2018-05-12T09:12:46.491Z,241.88
2018-05-12T09:14:39.759Z,247.50
2018-05-12T09:15:39.699Z,247.50
2018-05-12T09:17:33.120Z,247.50
2018-05-12T09:18:32.947Z,241.88
2018-05-12T09:20:26.333Z,230.63
2018-05-12T09:21:26.179Z,219.38
2018-05-12T09:23:19.478Z,236.25
2018-05-12T09:24:19.406Z,236.25
2018-05-12T09:26:12.693Z,236.25
2018-05-12T09:27:12.639Z,247.50
2018-05-12T09:29:05.941Z,241.88
2018-05-12T09:30:05.871Z,236.25
2018-05-12T09:31:59.176Z,236.25
2018-05-12T09:32:59.112Z,247.50
2018-05-12T09:34:52.395Z,258.75
2018-05-12T09:35:52.342Z,253.13
2018-05-12T09:37:45.663Z,281.25
2018-05-12T09:38:45.578Z,286.88
2018-05-12T09:40:38.875Z,253.13
2018-05-12T09:41:38.825Z,225.00
2018-05-12T09:43:32.243Z,213.75
2018-05-12T09:44:32.069Z,196.88
2018-05-12T09:46:25.385Z,264.38
2018-05-12T09:47:25.314Z,258.75
2018-05-12T09:49:18.630Z,264.38
2018-05-12T09:50:18.600Z,264.38
2018-05-12T09:52:11.876Z,264.38
2018-05-12T09:53:11.805Z,270.00
2018-05-12T09:55:05.103Z,281.25
2018-05-12T09:56:05.050Z,281.25
2018-05-12T09:57:58.442Z,275.63
2018-05-12T09:58:58.319Z,258.75
2018-05-12T10:00:51.594Z,247.50
2018-05-12T10:01:51.540Z,241.88
2018-05-12T10:03:44.887Z,253.13
2018-05-12T10:04:44.817Z,264.38
2018-05-12T10:06:38.145Z,258.75
2018-05-12T10:07:38.072Z,258.75
2018-05-12T10:09:31.492Z,264.38
2018-05-12T10:10:31.348Z,258.75
2018-05-12T10:12:24.654Z,196.88
2018-05-12T10:13:24.584Z,151.88
2018-05-12T10:15:17.980Z,151.88
2018-05-12T10:16:17.826Z,146.25
2018-05-12T10:18:11.123Z,157.50
2018-05-12T10:19:11.057Z,168.75
2018-05-12T10:21:04.346Z,157.50
2018-05-12T10:22:04.291Z,258.75
2018-05-12T10:23:57.593Z,180.00
2018-05-12T10:24:57.527Z,241.88
2018-05-12T10:26:50.847Z,191.25
2018-05-12T10:27:50.760Z,275.63
2018-05-12T10:29:44.056Z,275.63
2018-05-12T10:30:44.005Z,286.88
2018-05-12T10:32:37.307Z,270.00
2018-05-12T10:33:37.243Z,264.38
2018-05-12T10:35:30.628Z,264.38
2018-05-12T10:36:30.469Z,253.13
2018-05-12T10:38:23.773Z,146.25
2018-05-12T10:39:23.704Z,135.00
2018-05-12T10:41:16.990Z,135.00
2018-05-12T10:42:16.939Z,140.63
2018-05-12T10:44:10.244Z,146.25
2018-05-12T10:45:10.173Z,151.88
2018-05-12T10:47:03.488Z,180.00
2018-05-12T10:48:03.411Z,253.13
2018-05-12T10:49:56.696Z,253.13
2018-05-12T10:50:56.653Z,247.50
2018-05-12T10:52:49.956Z,247.50
2018-05-12T10:53:49.884Z,247.50
2018-05-12T10:55:43.171Z,247.50
2018-05-12T10:56:43.118Z,219.38
2018-05-12T10:58:36.424Z,247.50
2018-05-12T10:59:36.400Z,258.75
2018-05-12T11:01:29.172Z,264.38
2018-05-12T11:02:29.105Z,270.00
2018-05-12T11:04:22.413Z,270.00
2018-05-12T11:05:22.340Z,264.38
2018-05-12T11:07:15.756Z,258.75
2018-05-12T11:08:15.581Z,247.50
2018-05-12T11:10:08.866Z,247.50
2018-05-12T11:11:08.814Z,247.50
2018-05-12T11:13:02.116Z,247.50
2018-05-12T11:14:02.046Z,247.50
2018-05-12T11:15:55.383Z,247.50
2018-05-12T11:16:55.280Z,247.50
2018-05-12T11:18:48.583Z,253.13
2018-05-12T11:19:48.511Z,247.50
2018-05-12T11:21:41.911Z,236.25
2018-05-12T11:22:41.743Z,230.63
2018-05-12T11:24:35.049Z,213.75
2018-05-12T11:25:34.977Z,213.75
2018-05-12T11:27:28.349Z,225.00
2018-05-12T11:28:28.277Z,236.25
2018-05-12T11:30:21.585Z,230.63
2018-05-12T11:31:21.519Z,230.63
2018-05-12T11:33:14.818Z,219.38
2018-05-12T11:34:14.743Z,213.75
2018-05-12T11:36:08.040Z,219.38
2018-05-12T11:37:07.982Z,213.75
2018-05-12T11:39:01.284Z,219.38
2018-05-12T11:40:01.213Z,219.38
2018-05-12T11:41:54.494Z,225.00
2018-05-12T11:42:54.440Z,219.38
2018-05-12T11:44:47.896Z,202.50
2018-05-12T11:45:47.678Z,208.13
2018-05-12T11:47:40.980Z,202.50
2018-05-12T11:48:40.907Z,168.75
2018-05-12T11:50:34.189Z,168.75
2018-05-12T11:51:34.136Z,196.88
2018-05-12T11:53:27.472Z,213.75
2018-05-12T11:54:27.394Z,213.75
2018-05-12T11:56:20.677Z,219.38
2018-05-12T11:57:20.627Z,219.38
2018-05-12T11:59:13.930Z,185.63
2018-05-12T12:00:13.865Z,219.38
2018-05-12T12:02:07.154Z,219.38
2018-05-12T12:03:07.101Z,219.38
2018-05-12T12:05:01.020Z,219.38
2018-05-12T12:06:00.339Z,225.00
2018-05-12T12:07:53.661Z,219.38
2018-05-12T12:08:53.590Z,213.75
2018-05-12T12:10:46.981Z,196.88
2018-05-12T12:11:46.816Z,202.50
2018-05-12T12:13:40.119Z,202.50
2018-05-12T12:14:40.046Z,202.50
2018-05-12T12:16:33.363Z,202.50
2018-05-12T12:17:33.273Z,213.75
2018-05-12T12:19:26.681Z,202.50
2018-05-12T12:20:26.500Z,202.50
2018-05-12T12:22:19.812Z,196.88
2018-05-12T12:23:19.748Z,196.88
2018-05-12T12:25:13.059Z,180.00
2018-05-12T12:26:12.994Z,191.25
2018-05-12T12:28:06.353Z,191.25
2018-05-12T12:29:06.276Z,185.63
2018-05-12T12:30:59.560Z,191.25
2018-05-12T12:31:59.506Z,191.25
2018-05-12T12:33:52.808Z,191.25
2018-05-12T12:34:52.734Z,191.25
2018-05-12T12:36:46.626Z,185.63
2018-05-12T12:37:45.995Z,185.63
2018-05-12T12:39:39.291Z,185.63
2018-05-12T12:40:39.226Z,185.63
2018-05-12T12:42:32.502Z,180.00
2018-05-12T12:43:32.448Z,191.25
2018-05-12T12:45:26.749Z,213.75
2018-05-12T12:46:26.676Z,213.75
2018-05-12T12:48:19.976Z,219.38
2018-05-12T12:49:19.900Z,230.63
2018-05-12T12:51:13.184Z,236.25
2018-05-12T12:52:13.129Z,236.25
2018-05-12T12:54:06.431Z,247.50
2018-05-12T12:55:06.359Z,241.88
2018-05-12T12:56:59.749Z,236.25
2018-05-12T12:57:59.587Z,241.88
2018-05-12T12:59:52.896Z,236.25
2018-05-12T13:00:52.830Z,236.25
2018-05-12T13:02:46.207Z,225.00
2018-05-12T13:03:46.059Z,208.13
2018-05-12T13:05:39.353Z,230.63
2018-05-12T13:06:39.278Z,230.63
2018-05-12T13:08:32.588Z,219.38
2018-05-12T13:09:32.508Z,213.75
2018-05-12T13:11:25.801Z,225.00
2018-05-12T13:12:25.736Z,219.38
2018-05-12T13:14:19.040Z,219.38
2018-05-12T13:15:18.964Z,213.75
2018-05-12T13:17:12.251Z,202.50
2018-05-12T13:18:12.196Z,208.13
2018-05-12T13:20:05.496Z,219.38
2018-05-12T13:21:05.423Z,213.75
2018-05-12T13:22:59.817Z,208.13
2018-05-12T13:23:59.653Z,213.75
2018-05-12T13:25:52.952Z,213.75
2018-05-12T13:26:52.877Z,208.13
2018-05-12T13:28:46.180Z,202.50
2018-05-12T13:29:46.108Z,191.25
2018-05-12T13:31:39.388Z,191.25
2018-05-12T13:32:39.338Z,191.25
2018-05-12T13:34:32.630Z,191.25
2018-05-12T13:35:32.566Z,185.63
2018-05-12T13:37:25.844Z,185.63
2018-05-12T13:38:25.802Z,185.63
2018-05-12T13:40:20.172Z,185.63
2018-05-12T13:41:20.076Z,180.00
2018-05-12T13:43:13.315Z,180.00
2018-05-12T13:44:13.262Z,185.63
2018-05-12T13:46:06.592Z,180.00
2018-05-12T13:47:06.516Z,180.00
2018-05-12T13:48:59.926Z,180.00
2018-05-12T13:49:59.743Z,180.00
2018-05-12T13:51:53.139Z,180.00
2018-05-12T13:52:52.970Z,180.00
2018-05-12T13:54:46.381Z,174.38
2018-05-12T13:55:46.300Z,174.38
2018-05-12T13:57:39.556Z,174.38
2018-05-12T13:58:39.503Z,163.13
2018-05-12T14:00:32.912Z,163.13
2018-05-12T14:01:32.728Z,168.75
2018-05-12T14:03:26.123Z,163.13
2018-05-12T14:04:25.961Z,168.75
2018-05-12T14:06:19.261Z,168.75
2018-05-12T14:07:19.262Z,163.13
2018-05-12T14:09:12.487Z,168.75
2018-05-12T14:10:12.426Z,168.75
2018-05-12T14:12:05.700Z,163.13
2018-05-12T14:13:05.651Z,157.50
2018-05-12T14:14:58.942Z,163.13
2018-05-12T14:15:58.868Z,163.13
2018-05-12T14:17:52.151Z,151.88
2018-05-12T14:18:52.170Z,157.50
2018-05-12T14:20:45.393Z,168.75
2018-05-12T14:21:45.328Z,168.75
2018-05-12T14:23:38.606Z,174.38
2018-05-12T14:24:38.546Z,174.38
2018-05-12T14:26:31.846Z,174.38
2018-05-12T14:27:31.772Z,174.38
2018-05-12T14:29:25.069Z,180.00
2018-05-12T14:30:24.996Z,180.00
2018-05-12T14:32:18.327Z,174.38
2018-05-12T14:33:18.310Z,168.75
2018-05-12T14:35:11.574Z,174.38
2018-05-12T14:36:11.499Z,168.75
2018-05-12T14:38:04.789Z,168.75
2018-05-12T14:39:04.726Z,174.38
2018-05-12T14:40:58.025Z,163.13
2018-05-12T14:41:57.954Z,157.50
2018-05-12T14:43:51.234Z,157.50
2018-05-12T14:44:51.178Z,157.50
2018-05-12T14:46:44.479Z,151.88
2018-05-12T14:47:44.406Z,157.50
2018-05-12T14:49:37.825Z,157.50
2018-05-12T14:50:37.633Z,157.50
2018-05-12T14:52:30.915Z,163.13
2018-05-12T14:53:30.863Z,163.13
2018-05-12T14:55:24.276Z,163.13
2018-05-12T14:56:24.088Z,163.13
2018-05-12T14:58:17.481Z,157.50
2018-05-12T14:59:17.316Z,157.50
2018-05-12T15:01:10.616Z,151.88
2018-05-12T15:02:10.554Z,151.88
2018-05-12T15:04:03.825Z,151.88
2018-05-12T15:05:03.772Z,151.88
2018-05-12T15:06:57.180Z,157.50
2018-05-12T15:07:57.000Z,157.50
2018-05-12T15:09:50.349Z,157.50
2018-05-12T15:10:50.273Z,157.50
2018-05-12T15:12:43.556Z,157.50
2018-05-12T15:13:43.505Z,157.50
2018-05-12T15:15:36.806Z,140.63
2018-05-12T15:16:36.728Z,140.63
2018-05-12T15:18:30.123Z,140.63
2018-05-12T15:19:29.958Z,140.63
2018-05-12T15:21:23.300Z,146.25
2018-05-12T15:22:23.187Z,140.63
2018-05-12T15:24:16.478Z,146.25
2018-05-12T15:25:16.424Z,146.25
2018-05-12T15:27:09.734Z,140.63
2018-05-12T15:28:09.655Z,140.63
2018-05-12T15:30:02.968Z,140.63
2018-05-12T15:31:02.917Z,140.63
2018-05-12T15:32:56.187Z,140.63
2018-05-12T15:33:56.132Z,140.63
2018-05-12T15:35:49.544Z,135.00
2018-05-12T15:36:49.371Z,140.63
2018-05-12T15:38:42.667Z,140.63
2018-05-12T15:39:42.624Z,140.63
2018-05-12T15:41:36.023Z,140.63
2018-05-12T15:42:35.850Z,135.00
2018-05-12T15:44:29.141Z,140.63
2018-05-12T15:45:29.098Z,135.00
2018-05-12T15:47:22.498Z,123.75
2018-05-12T15:48:22.315Z,123.75
2018-05-12T15:50:15.628Z,123.75
2018-05-12T15:51:15.554Z,123.75
2018-05-12T15:53:09.847Z,135.00
2018-05-12T15:54:09.790Z,135.00
2018-05-12T15:56:03.103Z,135.00
2018-05-12T15:57:03.028Z,140.63
2018-05-12T15:58:56.419Z,140.63
2018-05-12T15:59:56.276Z,146.25
2018-05-12T16:01:49.683Z,146.25
2018-05-12T16:02:49.509Z,146.25
2018-05-12T16:04:43.804Z,151.88
2018-05-12T16:05:43.747Z,151.88
2018-05-12T16:07:37.047Z,151.88
2018-05-12T16:08:36.971Z,146.25
2018-05-12T16:10:30.350Z,151.88
2018-05-12T16:11:30.277Z,151.88
2018-05-12T16:13:23.567Z,140.63
2018-05-12T16:14:23.521Z,146.25
2018-05-12T16:16:16.820Z,146.25
2018-05-12T16:17:16.749Z,140.63
2018-05-12T16:19:10.040Z,140.63
2018-05-12T16:20:09.983Z,135.00
2018-05-12T16:22:03.418Z,146.25
2018-05-12T16:23:03.221Z,146.25
2018-05-12T16:24:56.514Z,146.25
2018-05-12T16:25:56.457Z,135.00
2018-05-12T16:27:49.770Z,129.38
2018-05-12T16:28:49.698Z,123.75
2018-05-12T16:30:43.008Z,123.75
2018-05-12T16:31:42.935Z,118.13
2018-05-12T16:33:36.226Z,123.75
2018-05-12T16:34:36.175Z,123.75
2018-05-12T16:36:29.485Z,118.13
2018-05-12T16:37:29.417Z,123.75
2018-05-12T16:39:22.702Z,118.13
2018-05-12T16:40:22.648Z,118.13
2018-05-12T16:42:15.958Z,112.50
2018-05-12T16:43:15.886Z,106.88
2018-05-12T16:45:10.278Z,101.25
2018-05-12T16:46:10.125Z,95.63
2018-05-12T16:48:04.041Z,90.00
2018-05-12T16:49:03.361Z,90.00
2018-05-12T16:50:56.765Z,90.00
2018-05-12T16:51:56.596Z,90.00
2018-05-12T16:53:49.887Z,84.38
2018-05-12T16:54:49.833Z,78.75
2018-05-12T16:56:43.144Z,73.13
2018-05-12T16:57:43.072Z,73.13
2018-05-12T16:59:36.357Z,67.50
2018-05-12T17:00:36.304Z,67.50
2018-05-12T17:02:29.616Z,67.50
2018-05-12T17:03:29.542Z,67.50
2018-05-12T17:05:22.831Z,73.13
2018-05-12T17:06:22.789Z,73.13
2018-05-12T17:08:16.083Z,73.13
2018-05-12T17:09:16.009Z,73.13
2018-05-12T17:11:09.330Z,73.13
2018-05-12T17:12:09.244Z,67.50
2018-05-12T17:14:02.535Z,67.50
2018-05-12T17:15:02.478Z,67.50
2018-05-12T17:16:55.788Z,67.50
2018-05-12T17:17:55.716Z,73.13
2018-05-12T17:19:49.007Z,73.13
2018-05-12T17:20:48.947Z,73.13
2018-05-12T17:22:42.356Z,67.50
2018-05-12T17:23:42.273Z,67.50
2018-05-12T17:25:35.565Z,61.88
2018-05-12T17:26:35.503Z,61.88
2018-05-12T17:28:28.819Z,61.88
2018-05-12T17:29:28.743Z,61.88
2018-05-12T17:31:22.054Z,61.88
2018-05-12T17:32:22.012Z,61.88
2018-05-12T17:34:15.269Z,61.88
2018-05-12T17:35:15.213Z,61.88
2018-05-12T17:37:08.521Z,61.88
2018-05-12T17:38:08.443Z,61.88
2018-05-12T17:40:01.733Z,56.25
2018-05-12T17:41:01.677Z,56.25
2018-05-12T17:42:54.987Z,56.25
2018-05-12T17:43:54.912Z,56.25
2018-05-12T17:45:48.304Z,56.25
2018-05-12T17:46:48.145Z,56.25
2018-05-12T17:48:41.454Z,56.25
2018-05-12T17:49:41.382Z,56.25
2018-05-12T17:51:34.694Z,56.25
2018-05-12T17:52:34.616Z,56.25
2018-05-12T17:54:28.005Z,50.63
2018-05-12T17:55:27.855Z,50.63
2018-05-12T17:57:21.176Z,50.63
2018-05-12T17:58:21.102Z,50.63
2018-05-12T18:00:14.392Z,45.00
2018-05-12T18:01:14.334Z,45.00
2018-05-12T18:03:07.773Z,45.00
2018-05-12T18:04:07.572Z,45.00
2018-05-12T18:06:00.863Z,39.38
2018-05-12T18:07:00.806Z,39.38
2018-05-12T18:08:54.119Z,39.38
2018-05-12T18:09:54.045Z,39.38
2018-05-12T18:11:47.349Z,39.38
2018-05-12T18:12:47.279Z,33.75
2018-05-12T18:14:40.564Z,33.75
2018-05-12T18:15:40.508Z,33.75
2018-05-12T18:17:33.917Z,33.75
2018-05-12T18:18:33.735Z,28.13
2018-05-12T18:20:27.024Z,28.13